• Join FlightAware (Why Join?)
  • Login
  • US Flag 
04:05AM EST


 

Airport Tracker/Info


-or-


 

Live Flight TrackerFlight Track Log ✈ AWE1940 ✈ 29-Apr-2013 ✈ KRSW - KCLT

Flight Track Log - Related Links

Times and Time Zones

All times are in EDT time to prevent confusion due to time zone crossing. See the AWE1940 flight status page for this flight to view local times or setup timezone preferences in your user account.

Time Position Orientation Groundspeed Altitude Reporting Facility
EDT Latitude Longitude Course Direction KTS MPH feet Rate Location/Type
10:39PM 35.2137 -80.9491 356° North  Level Estimated
10:40PM 35.2197 -80.9527 334° Northwest  Level FlightAware Approximate
10:41PM 35.2256 -80.9563 334° Northwest  Level FlightAware Approximate
10:42PM 35.2315 -80.9599 334° Northwest  Level FlightAware Approximate
10:43PM 35.2375 -80.9635 334° Northwest  Level FlightAware Approximate
10:44PM 35.2434 -80.9672 334° Northwest  Level FlightAware Approximate
10:45PM 35.2493 -80.9708 334° Northwest  Level FlightAware Approximate
10:46PM 35.2552 -80.9744 334° Northwest  Level FlightAware Approximate
10:47PM 35.2612 -80.9780 334° Northwest  Level FlightAware Approximate
10:48PM 35.2671 -80.9816 334° Northwest  Level FlightAware Approximate
10:49PM 35.2730 -80.9853 334° Northwest  Level FlightAware Approximate
10:50PM 35.2790 -80.9889 334° Northwest  Level FlightAware Approximate
10:51PM 35.2849 -80.9925 334° Northwest  Level FlightAware Approximate
10:52PM 35.2790 -80.9889 North  Level Estimated
10:53PM 35.2853 -80.9912 343° North  Level FlightAware Approximate
10:54PM 35.2916 -80.9936 343° North  Level FlightAware Approximate
10:55PM 35.2980 -80.9959 343° North  Level FlightAware Approximate
10:56PM 35.3043 -80.9983 343° North  Level FlightAware Approximate
10:57PM 35.3107 -81.0006 343° North  Level FlightAware Approximate
10:58PM 35.3170 -81.0030 343° North  Level FlightAware Approximate
10:59PM 35.3233 -81.0053 343° North  Level FlightAware Approximate
11:00PM 35.3297 -81.0077 343° North  Level FlightAware Approximate
11:01PM 35.3360 -81.0100 343° North  Level FlightAware Approximate
11:02PM 35.3424 -81.0124 343° North  Level FlightAware Approximate
11:03PM 35.3487 -81.0147 343° North  Level FlightAware Approximate
11:04PM 35.3550 -81.0171 343° North  Level FlightAware Approximate
11:05PM 35.3614 -81.0194 343° North  Level FlightAware Approximate
11:06PM 35.3677 -81.0218 343° North  Level FlightAware Approximate
11:07PM 35.3615 -81.0189 North  Level Estimated
11:08PM 35.3679 -81.0210 344° North  Level FlightAware Approximate
11:09PM 35.3617 -81.0182 162° South  Level Estimated
11:10PM 35.3684 -81.0177 North  Level FlightAware Approximate
11:11PM 35.3750 -81.0172 North  Level FlightAware Approximate
11:12PM 35.3816 -81.0168 North  Level FlightAware Approximate
11:13PM 35.3882 -81.0163 North  Level FlightAware Approximate
11:14PM 35.3816 -81.0168 183° South  Level FlightAware Approximate
11:15PM 35.3882 -81.0163 North  Level FlightAware Approximate
11:16PM 35.3816 -81.0168 183° South  Level FlightAware Approximate
11:17PM 35.3882 -81.0163 North  Level FlightAware Approximate
11:18PM 35.3816 -81.0168 183° South  Level FlightAware Approximate
11:19PM 35.3882 -81.0163 North  Level FlightAware Approximate
11:20PM 35.3816 -81.0168 183° South  Level FlightAware Approximate
11:21PM 35.3882 -81.0163 North  Level FlightAware Approximate
11:22PM 35.3816 -81.0168 183° South  Level FlightAware Approximate
11:23PM 35.3882 -81.0163 North  Level FlightAware Approximate
11:24PM 35.3816 -81.0168 183° South  Level FlightAware Approximate
11:25PM 35.3882 -81.0163 North  Level FlightAware Approximate
11:26PM 35.3816 -81.0168 183° South  Level FlightAware Approximate
11:27PM 35.3882 -81.0163 North  Level FlightAware Approximate
11:28PM 35.3816 -81.0168 183° South  Level FlightAware Approximate
11:29PM 35.3882 -81.0163 North  Level FlightAware Approximate
11:30PM 35.3816 -81.0168 183° South  Level FlightAware Approximate
11:31PM 35.3882 -81.0163 North  Level FlightAware Approximate
11:32PM 35.3816 -81.0168 183° South  Level FlightAware Approximate
11:33PM 35.3882 -81.0163 North  Level FlightAware Approximate
11:34PM 35.3816 -81.0168 183° South  Level FlightAware Approximate
11:35PM 35.3882 -81.0163 North  Level FlightAware Approximate
11:36PM 35.3799 -81.0150 158° South  Level FlightAware Approximate
11:37PM 35.3738 -81.0119 158° South  Level FlightAware Approximate
11:38PM 35.3676 -81.0088 158° South  Level FlightAware Approximate
11:39PM 35.3615 -81.0057 158° South  Level FlightAware Approximate
11:40PM 35.3554 -81.0027 158° South  Level FlightAware Approximate
11:41PM 35.3492 -80.9996 158° South  Level FlightAware Approximate
11:42PM 35.3431 -80.9965 158° South  Level FlightAware Approximate
11:43PM 35.3370 -80.9935 158° South  Level FlightAware Approximate
11:44PM 35.3308 -80.9904 158° South  Level FlightAware Approximate
11:45PM 35.3247 -80.9874 158° South  Level FlightAware Approximate
11:46PM 35.3186 -80.9843 158° South  Level FlightAware Approximate
11:47PM 35.3123 -80.9816 162° South  Level FlightAware Approximate
11:48PM 35.3060 -80.9791 162° South  Level FlightAware Approximate
11:49PM 35.2997 -80.9765 162° South  Level FlightAware Approximate
11:50PM 35.2934 -80.9740 162° South  Level FlightAware Approximate
11:51PM 35.2871 -80.9715 162° South  Level FlightAware Approximate
11:52PM 35.2808 -80.9690 162° South  Level FlightAware Approximate
11:53PM 35.2745 -80.9665 162° South  Level FlightAware Approximate
11:54PM 35.2682 -80.9640 162° South  Level FlightAware Approximate
11:55PM 35.2619 -80.9614 162° South  Level FlightAware Approximate
11:56PM 35.2556 -80.9589 162° South  Level FlightAware Approximate
11:57PM 35.2493 -80.9564 162° South  Level FlightAware Approximate
11:58PM 35.2430 -80.9539 162° South  Level FlightAware Approximate
11:59PM 35.2367 -80.9513 162° South  Level FlightAware Approximate
12:00AM 35.2305 -80.9486 158° South  Level FlightAware Approximate
12:01AM 35.2244 -80.9455 158° South  Level FlightAware Approximate
12:02AM 35.2183 -80.9425 158° South  Level FlightAware Approximate
12:03AM 35.2121 -80.9394 158° South  Level FlightAware Approximate
12:04AM 35.2060 -80.9363 158° South  Level FlightAware Approximate
12:05AM 35.2000 -80.9333 158° South  Level FlightAware Approximate
12:06AM 35.2048 -80.9389 158° South  Level Estimated
12:07AM 35.2000 -80.9333 158° South  Level FlightAware Approximate
12:08AM 35.2048 -80.9389 158° South  Level Estimated
12:09AM 35.2000 -80.9333 158° South  Level FlightAware Approximate
12:10AM 35.2048 -80.9389 158° South  Level Estimated
12:11AM 35.2000 -80.9333 158° South  Level FlightAware Approximate
12:12AM 35.2048 -80.9389 158° South  Level Estimated
12:13AM 35.2000 -80.9333 158° South  Level FlightAware Approximate
12:14AM 35.2048 -80.9389 158° South  Level Estimated
12:15AM 35.2000 -80.9333 158° South  Level FlightAware Approximate
12:16AM 35.2048 -80.9389 158° South  Level Estimated
12:17AM 35.2000 -80.9333 158° South  Level FlightAware Approximate
12:18AM 35.2048 -80.9389 158° South  Level Estimated
12:19AM 35.2000 -80.9333 158° South  Level FlightAware Approximate
12:20AM 35.2048 -80.9389 158° South  Level Estimated
12:21AM 35.2000 -80.9333 158° South  Level FlightAware Approximate
12:22AM 35.2048 -80.9389 158° South  Level Estimated